createdAt,value
2023-02-18T00:01:46.442Z,101274.50
2023-02-18T00:04:18.848Z,101273.09
2023-02-18T00:06:46.001Z,101280.72
2023-02-18T00:09:15.888Z,101287.78
2023-02-18T00:11:45.003Z,101290.66
2023-02-18T00:14:15.590Z,101289.84
2023-02-18T00:16:43.635Z,101294.94
2023-02-18T00:19:20.373Z,101293.81
2023-02-18T00:21:50.134Z,101286.75
2023-02-18T00:24:17.437Z,101289.56
2023-02-18T00:26:49.965Z,101288.16
2023-02-18T00:29:16.875Z,101288.97
2023-02-18T00:31:44.266Z,101288.06
2023-02-18T00:34:14.232Z,101286.88
2023-02-18T00:36:41.346Z,101282.47
2023-02-18T00:39:14.008Z,101285.22
2023-02-18T00:41:41.517Z,101283.78
2023-02-18T00:44:09.456Z,101291.34
2023-02-18T00:46:36.555Z,101283.75
2023-02-18T00:49:04.768Z,101279.88
2023-02-18T00:51:34.478Z,101277.88
2023-02-18T00:54:01.439Z,101272.69
2023-02-18T00:56:33.923Z,101274.38
2023-02-18T00:59:00.847Z,101278.34
2023-02-18T01:01:32.899Z,101275.56
2023-02-18T01:03:59.884Z,101278.00
2023-02-18T01:06:27.197Z,101289.75
2023-02-18T01:08:58.947Z,101279.59
2023-02-18T01:11:26.087Z,101283.00
2023-02-18T01:13:53.142Z,101284.59
2023-02-18T01:16:20.440Z,101294.97
2023-02-18T01:18:47.555Z,101298.72
2023-02-18T01:21:19.624Z,101296.56
2023-02-18T01:23:48.966Z,101298.59
2023-02-18T01:26:15.817Z,101301.09
2023-02-18T01:28:42.779Z,101290.09
2023-02-18T01:31:13.515Z,101292.53
2023-02-18T01:33:40.833Z,101300.31
2023-02-18T01:36:09.323Z,101288.78
2023-02-18T01:38:36.950Z,101282.22
2023-02-18T01:41:06.840Z,101285.03
2023-02-18T01:43:35.134Z,101282.28
2023-02-18T01:46:21.841Z,101267.16
2023-02-18T01:48:55.775Z,101276.13
2023-02-18T01:51:22.600Z,101272.50
2023-02-18T01:53:55.400Z,101268.94
2023-02-18T01:57:00.372Z,101265.28
2023-02-18T01:59:40.606Z,101255.59
2023-02-18T02:02:14.540Z,101258.22
2023-02-18T02:04:42.348Z,101260.47
2023-02-18T02:07:09.776Z,101262.97
2023-02-18T02:09:38.725Z,101268.69
2023-02-18T02:12:44.449Z,101266.31
2023-02-18T02:15:30.616Z,101268.56
2023-02-18T02:18:25.590Z,101260.06
2023-02-18T02:21:26.784Z,101253.75
2023-02-18T02:24:46.799Z,101262.97
2023-02-18T02:27:53.327Z,101269.28
2023-02-18T02:30:45.103Z,101265.13
2023-02-18T02:33:37.363Z,101264.81
2023-02-18T02:36:19.013Z,101259.78
2023-02-18T02:39:29.044Z,101255.72
2023-02-18T02:42:46.477Z,101255.78
2023-02-18T02:45:43.568Z,101258.28
2023-02-18T02:48:20.433Z,101254.34
2023-02-18T02:51:20.596Z,101256.00
2023-02-18T02:53:47.891Z,101237.69
2023-02-18T02:56:22.516Z,101235.34
2023-02-18T02:59:07.706Z,101246.34
2023-02-18T03:02:16.132Z,101235.53
2023-02-18T03:05:43.567Z,101236.72
2023-02-18T03:08:28.879Z,101229.63
2023-02-18T03:11:08.067Z,101216.88
2023-02-18T03:13:53.639Z,101218.88
2023-02-18T03:17:37.518Z,101213.72
2023-02-18T03:20:35.624Z,101223.66
2023-02-18T03:23:11.550Z,101219.34
2023-02-18T03:25:43.480Z,101220.03
2023-02-18T03:28:19.500Z,101225.91
2023-02-18T03:30:59.373Z,101226.81
2023-02-18T03:33:36.602Z,101215.31
2023-02-18T03:36:04.505Z,101213.91
2023-02-18T03:38:44.601Z,101212.91
2023-02-18T03:41:14.434Z,101210.63
2023-02-18T03:43:52.021Z,101207.25
2023-02-18T03:46:22.027Z,101212.34
2023-02-18T03:48:48.981Z,101211.66
2023-02-18T03:51:19.323Z,101213.19
2023-02-18T03:53:46.842Z,101211.38
2023-02-18T03:56:14.435Z,101216.88
2023-02-18T03:58:41.537Z,101220.06
2023-02-18T04:01:08.584Z,101230.56
2023-02-18T04:03:37.837Z,101225.47
2023-02-18T04:06:05.660Z,101236.84
2023-02-18T04:08:32.835Z,101232.44
2023-02-18T04:11:00.493Z,101234.13
2023-02-18T04:13:27.935Z,101234.84
2023-02-18T04:15:57.964Z,101222.63
2023-02-18T04:18:27.462Z,101226.06
2023-02-18T04:20:56.701Z,101223.19
2023-02-18T04:23:26.401Z,101223.34
2023-02-18T04:25:55.980Z,101235.72
2023-02-18T04:28:25.403Z,101209.84
2023-02-18T04:30:52.494Z,101217.81
2023-02-18T04:33:21.774Z,101207.56
2023-02-18T04:35:51.319Z,101192.78
2023-02-18T04:38:18.336Z,101188.81
2023-02-18T04:40:45.503Z,101186.53
2023-02-18T04:43:14.925Z,101186.81
2023-02-18T04:45:41.896Z,101185.69
2023-02-18T04:48:08.849Z,101184.97
2023-02-18T04:50:35.719Z,101184.53
2023-02-18T04:53:02.774Z,101199.03
2023-02-18T04:55:30.021Z,101191.22
2023-02-18T04:57:57.036Z,101193.06
2023-02-18T05:00:28.607Z,101189.09
2023-02-18T05:02:58.019Z,101182.53
2023-02-18T05:05:27.578Z,101181.69
2023-02-18T05:07:56.854Z,101175.72
2023-02-18T05:10:23.805Z,101183.25
2023-02-18T05:12:53.761Z,101170.16
2023-02-18T05:15:20.887Z,101164.31
2023-02-18T05:17:47.768Z,101161.22
2023-02-18T05:20:14.798Z,101168.03
2023-02-18T05:22:48.723Z,101169.91
2023-02-18T05:25:15.775Z,101161.09
2023-02-18T05:27:42.718Z,101155.25
2023-02-18T05:30:12.856Z,101156.97
2023-02-18T05:32:40.032Z,101155.50
2023-02-18T05:35:10.414Z,101141.75
2023-02-18T05:37:44.728Z,101137.78
2023-02-18T05:40:16.872Z,101138.47
2023-02-18T05:42:48.290Z,101126.25
2023-02-18T05:45:15.293Z,101136.88
2023-02-18T05:47:44.247Z,101137.03
2023-02-18T05:50:11.414Z,101130.69
2023-02-18T05:52:38.256Z,101127.47
2023-02-18T05:55:07.668Z,101139.72
2023-02-18T05:57:34.551Z,101124.47
2023-02-18T06:00:01.391Z,101122.47
2023-02-18T06:02:30.360Z,101119.59
2023-02-18T06:04:59.691Z,101127.38
2023-02-18T06:07:26.547Z,101109.31
2023-02-18T06:09:53.895Z,101106.91
2023-02-18T06:12:20.721Z,101102.72
2023-02-18T06:14:47.723Z,101097.88
2023-02-18T06:17:16.160Z,101101.88
2023-02-18T06:19:43.125Z,101099.31
2023-02-18T06:22:17.641Z,101095.81
2023-02-18T06:24:44.681Z,101096.22
2023-02-18T06:27:13.691Z,101104.97
2023-02-18T06:29:40.534Z,101099.69
2023-02-18T06:32:07.489Z,101098.63
2023-02-18T06:34:34.461Z,101084.75
2023-02-18T06:37:01.549Z,101080.88
2023-02-18T06:39:29.021Z,101075.44
2023-02-18T06:41:58.438Z,101068.06
2023-02-18T06:44:25.271Z,101060.78
2023-02-18T06:46:55.124Z,101060.97
2023-02-18T06:49:25.044Z,101059.81
2023-02-18T06:51:51.917Z,101050.41
2023-02-18T06:54:18.834Z,101037.03
2023-02-18T06:56:45.760Z,101033.88
2023-02-18T06:59:14.993Z,101038.63
2023-02-18T07:01:41.821Z,101026.91
2023-02-18T07:04:11.777Z,101016.31
2023-02-18T07:06:38.648Z,101002.91
2023-02-18T07:09:06.311Z,101004.78
2023-02-18T07:11:33.327Z,100996.19
2023-02-18T07:14:00.176Z,100994.28
2023-02-18T07:16:27.132Z,100987.34
2023-02-18T07:18:58.973Z,100981.78
2023-02-18T07:21:26.004Z,100953.44
2023-02-18T07:23:52.892Z,100956.09
2023-02-18T07:26:24.286Z,100960.06
2023-02-18T07:28:51.089Z,100957.53
2023-02-18T07:31:21.048Z,100960.00
2023-02-18T07:33:50.139Z,100954.84
2023-02-18T07:36:19.380Z,100951.44
2023-02-18T07:38:49.286Z,100948.53
2023-02-18T07:41:20.366Z,100942.59
2023-02-18T07:43:52.208Z,100945.22
2023-02-18T07:46:19.872Z,100927.75
2023-02-18T07:48:48.782Z,100919.53
2023-02-18T07:51:15.921Z,100913.13
2023-02-18T07:53:44.080Z,100911.09
2023-02-18T07:56:12.195Z,100895.91
2023-02-18T07:58:42.631Z,100888.41
2023-02-18T08:01:15.864Z,100875.34
2023-02-18T08:03:43.402Z,100863.00
2023-02-18T08:06:42.999Z,100846.69
2023-02-18T08:09:10.444Z,100861.84
2023-02-18T08:11:37.591Z,100849.41
2023-02-18T08:14:07.566Z,100846.47
2023-02-18T08:16:41.831Z,100837.22
2023-02-18T08:19:18.724Z,100832.97
2023-02-18T08:21:49.558Z,100821.22
2023-02-18T08:24:17.410Z,100833.34
2023-02-18T08:26:59.484Z,100824.06
2023-02-18T08:29:31.964Z,100811.81
2023-02-18T08:31:59.840Z,100811.25
2023-02-18T08:34:29.620Z,100802.50
2023-02-18T08:36:56.594Z,100801.22
2023-02-18T08:39:26.421Z,100800.06
2023-02-18T08:41:55.538Z,100787.19
2023-02-18T08:44:22.508Z,100786.25
2023-02-18T08:46:49.518Z,100779.06
2023-02-18T08:49:21.285Z,100768.44
2023-02-18T08:52:04.518Z,100755.78
2023-02-18T08:54:34.544Z,100761.69
2023-02-18T08:57:08.043Z,100746.31
2023-02-18T08:59:37.446Z,100740.00
2023-02-18T09:02:05.842Z,100741.78
2023-02-18T09:04:33.321Z,100739.09
2023-02-18T09:07:00.228Z,100737.78
2023-02-18T09:09:29.419Z,100737.63
2023-02-18T09:11:56.578Z,100735.38
2023-02-18T09:14:26.677Z,100731.41
2023-02-18T09:16:57.193Z,100729.66
2023-02-18T09:19:25.209Z,100725.72
2023-02-18T09:21:54.634Z,100711.91
2023-02-18T09:24:24.694Z,100699.75
2023-02-18T09:26:52.018Z,100696.69
2023-02-18T09:32:22.613Z,100688.16
2023-02-18T09:35:04.726Z,100672.97
2023-02-18T09:37:31.631Z,100667.00
2023-02-18T09:40:00.046Z,100661.97
2023-02-18T09:42:35.160Z,100655.59
2023-02-18T09:45:07.490Z,100654.97
2023-02-18T09:47:41.360Z,100650.50
2023-02-18T09:50:18.783Z,100649.53
2023-02-18T09:52:50.676Z,100636.47
2023-02-18T09:55:30.900Z,100631.75
2023-02-18T09:58:08.460Z,100633.75
2023-02-18T10:00:42.607Z,100631.13
2023-02-18T10:03:18.106Z,100629.28
2023-02-18T10:06:06.550Z,100623.44
2023-02-18T10:08:45.218Z,100622.59
2023-02-18T10:11:28.939Z,100613.97
2023-02-18T10:13:57.478Z,100609.72
2023-02-18T10:16:25.433Z,100595.69
2023-02-18T10:19:00.210Z,100590.97
2023-02-18T10:21:35.962Z,100579.44
2023-02-18T10:24:26.337Z,100574.38
2023-02-18T10:26:55.659Z,100563.53
2023-02-18T10:29:26.360Z,100559.78
2023-02-18T10:32:23.740Z,100551.19
2023-02-18T10:35:00.419Z,100553.25
2023-02-18T10:37:44.780Z,100552.41
2023-02-18T10:40:30.521Z,100543.59
2023-02-18T10:43:23.263Z,100540.22
2023-02-18T10:46:18.918Z,100537.19
2023-02-18T10:49:00.440Z,100537.34
2023-02-18T10:51:35.760Z,100518.19
2023-02-18T10:54:06.846Z,100522.03
2023-02-18T10:56:38.706Z,100516.78
2023-02-18T10:59:25.384Z,100512.66
2023-02-18T11:02:12.212Z,100507.22
2023-02-18T11:04:43.618Z,100498.56
2023-02-18T11:07:23.932Z,100496.66
2023-02-18T11:09:54.878Z,100506.03
2023-02-18T11:12:58.737Z,100494.25
2023-02-18T11:15:27.523Z,100489.53
2023-02-18T11:18:00.031Z,100492.16
2023-02-18T11:20:38.503Z,100485.97
2023-02-18T11:23:18.573Z,100479.56
2023-02-18T11:26:07.305Z,100473.84
2023-02-18T11:28:45.393Z,100467.28
2023-02-18T11:31:23.745Z,100472.44
2023-02-18T11:33:57.567Z,100464.66
2023-02-18T11:36:40.058Z,100473.78
2023-02-18T11:39:24.447Z,100459.91
2023-02-18T11:42:05.128Z,100463.00
2023-02-18T11:44:37.594Z,100462.56
2023-02-18T11:47:17.114Z,100467.88
2023-02-18T11:50:02.765Z,100456.06
2023-02-18T11:52:44.485Z,100440.13
2023-02-18T11:55:27.676Z,100440.38
2023-02-18T11:58:03.386Z,100443.88
2023-02-18T12:00:47.217Z,100450.63
2023-02-18T12:03:40.443Z,100437.97
2023-02-18T12:06:20.934Z,100447.31
2023-02-18T12:09:05.339Z,100465.94
2023-02-18T12:11:44.703Z,100448.59
2023-02-18T12:14:23.808Z,100444.59
2023-02-18T12:17:31.619Z,100466.44
2023-02-18T12:20:29.851Z,100452.94
2023-02-18T12:23:34.439Z,100455.47
2023-02-18T12:26:27.396Z,100456.53
2023-02-18T12:29:05.759Z,100456.72
2023-02-18T12:31:51.231Z,100465.84
2023-02-18T12:34:43.176Z,100462.03
2023-02-18T12:37:37.387Z,100468.13
2023-02-18T12:40:36.385Z,100463.84
2023-02-18T12:43:17.225Z,100467.50
2023-02-18T12:46:24.153Z,100474.75
2023-02-18T12:49:37.948Z,100479.44
2023-02-18T12:52:37.056Z,100475.97
2023-02-18T12:55:41.970Z,100473.19
2023-02-18T12:58:39.712Z,100473.38
2023-02-18T13:01:33.244Z,100482.25
2023-02-18T13:04:39.797Z,100495.22
2023-02-18T13:07:12.658Z,100493.75
2023-02-18T13:10:17.143Z,100506.38
2023-02-18T13:13:11.049Z,100507.41
2023-02-18T13:16:22.689Z,100519.16
2023-02-18T13:19:19.314Z,100511.06
2023-02-18T13:21:49.912Z,100517.00
2023-02-18T13:24:33.183Z,100525.44
2023-02-18T13:27:34.202Z,100526.97
2023-02-18T13:30:26.160Z,100522.88
2023-02-18T13:33:57.175Z,100537.03
2023-02-18T13:36:59.633Z,100571.41
2023-02-18T13:39:27.489Z,100555.66
2023-02-18T13:42:22.913Z,100551.31
2023-02-18T13:44:55.888Z,100548.50
2023-02-18T13:47:45.552Z,100551.94
2023-02-18T13:50:30.330Z,100557.16
2023-02-18T13:53:09.584Z,100559.38
2023-02-18T13:56:28.406Z,100572.75
2023-02-18T13:59:11.357Z,100578.84
2023-02-18T14:01:49.644Z,100572.31
2023-02-18T14:04:44.390Z,100578.31
2023-02-18T14:07:44.498Z,100582.50
2023-02-18T14:10:18.259Z,100583.44
2023-02-18T14:12:57.926Z,100578.00
2023-02-18T14:15:24.878Z,100592.56
2023-02-18T14:18:12.949Z,100583.88
2023-02-18T14:20:39.877Z,100597.75
2023-02-18T14:23:18.497Z,100601.88
2023-02-18T14:26:05.701Z,100597.75
2023-02-18T14:28:40.707Z,100598.56
2023-02-18T14:31:14.122Z,100617.59
2023-02-18T14:33:49.867Z,100613.19
2023-02-18T14:36:25.646Z,100626.72
2023-02-18T14:39:35.850Z,100622.31
2023-02-18T14:42:22.227Z,100618.81
2023-02-18T14:45:11.043Z,100635.81
2023-02-18T14:48:02.641Z,100645.84
2023-02-18T14:50:35.981Z,100645.44
2023-02-18T14:53:18.460Z,100652.91
2023-02-18T14:55:50.152Z,100654.56
2023-02-18T14:58:43.691Z,100659.94
2023-02-18T15:01:24.455Z,100664.00
2023-02-18T15:03:54.650Z,100674.88
2023-02-18T15:06:38.404Z,100677.97
2023-02-18T15:09:19.971Z,100693.59
2023-02-18T15:12:05.884Z,100681.09
2023-02-18T15:14:42.410Z,100698.72
2023-02-18T15:17:31.979Z,100706.50
2023-02-18T15:20:06.630Z,100693.06
2023-02-18T15:22:36.265Z,100704.78
2023-02-18T15:25:06.040Z,100709.38
2023-02-18T15:27:39.128Z,100718.00
2023-02-18T15:30:31.475Z,100731.72
2023-02-18T15:33:02.145Z,100744.06
2023-02-18T15:35:33.071Z,100732.88
2023-02-18T15:38:04.655Z,100745.13
2023-02-18T15:40:35.549Z,100743.94
2023-02-18T15:43:05.239Z,100745.47
2023-02-18T15:45:38.507Z,100748.69
2023-02-18T15:48:06.379Z,100763.31
2023-02-18T15:50:47.053Z,100761.78
2023-02-18T15:53:21.169Z,100768.19
2023-02-18T15:55:51.313Z,100764.38
2023-02-18T15:58:28.861Z,100772.84
2023-02-18T16:01:04.737Z,100768.94
2023-02-18T16:03:49.100Z,100775.44
2023-02-18T16:06:23.224Z,100776.34
2023-02-18T16:09:19.470Z,100794.66
2023-02-18T16:11:54.474Z,100801.56
2023-02-18T16:14:28.041Z,100796.00
2023-02-18T16:17:13.022Z,100808.84
2023-02-18T16:20:15.089Z,100812.28
2023-02-18T16:22:56.190Z,100819.75
2023-02-18T16:25:35.736Z,100807.22
2023-02-18T16:28:02.632Z,100805.19
2023-02-18T16:30:36.390Z,100819.75
2023-02-18T16:33:04.050Z,100824.84
2023-02-18T16:35:44.012Z,100837.72
2023-02-18T16:38:25.331Z,100841.47
2023-02-18T16:40:56.846Z,100845.19
2023-02-18T16:43:27.364Z,100858.75
2023-02-18T16:45:58.025Z,100855.88
2023-02-18T16:48:42.137Z,100860.44
2023-02-18T16:51:21.433Z,100872.84
2023-02-18T16:53:48.491Z,100868.59
2023-02-18T16:56:19.667Z,100869.28
2023-02-18T16:58:50.604Z,100874.69
2023-02-18T17:01:44.081Z,100878.41
2023-02-18T17:04:17.077Z,100878.56
2023-02-18T17:06:49.525Z,100894.19
2023-02-18T17:09:21.280Z,100903.22
2023-02-18T17:11:51.087Z,100903.72
2023-02-18T17:14:20.250Z,100905.75
2023-02-18T17:16:50.121Z,100920.59
2023-02-18T17:19:17.400Z,100918.94
2023-02-18T17:21:48.697Z,100933.53
2023-02-18T17:24:18.009Z,100928.78
2023-02-18T17:26:47.458Z,100934.34
2023-02-18T17:29:14.250Z,100942.06
2023-02-18T17:31:47.724Z,100952.28
2023-02-18T17:34:32.529Z,100956.66
2023-02-18T17:37:02.104Z,100957.06
2023-02-18T17:39:29.929Z,100963.41
2023-02-18T17:41:59.365Z,100969.50
2023-02-18T17:44:29.720Z,100965.97
2023-02-18T17:46:56.634Z,100977.19
2023-02-18T17:49:23.519Z,100974.44
2023-02-18T17:51:53.195Z,100975.84
2023-02-18T17:54:22.808Z,100982.50
2023-02-18T17:56:55.661Z,100971.81
2023-02-18T17:59:25.211Z,100979.31
2023-02-18T18:01:54.302Z,100988.69
2023-02-18T18:04:21.219Z,100985.28
2023-02-18T18:06:51.182Z,100999.03
2023-02-18T18:09:18.236Z,100996.56
2023-02-18T18:11:45.117Z,100995.56
2023-02-18T18:14:15.213Z,100999.28
2023-02-18T18:16:44.271Z,101008.19
2023-02-18T18:19:13.627Z,101011.03
2023-02-18T18:21:43.071Z,101010.56
2023-02-18T18:24:12.907Z,101019.69
2023-02-18T18:26:44.394Z,101027.44
2023-02-18T18:29:13.386Z,101031.69
2023-02-18T18:31:40.452Z,101027.59
2023-02-18T18:34:12.558Z,101027.34
2023-02-18T18:36:41.730Z,101026.88
2023-02-18T18:39:09.461Z,101038.25
2023-02-18T18:41:36.497Z,101038.47
2023-02-18T18:44:06.596Z,101035.53
2023-02-18T18:46:33.617Z,101045.53
2023-02-18T18:49:00.518Z,101039.78
2023-02-18T18:51:32.835Z,101049.53
2023-02-18T18:53:59.775Z,101045.28
2023-02-18T18:56:26.684Z,101044.50
2023-02-18T18:58:53.839Z,101052.56
2023-02-18T19:01:27.101Z,101046.44
2023-02-18T19:03:54.285Z,101049.72
2023-02-18T19:06:21.610Z,101046.75
2023-02-18T19:08:48.652Z,101047.53
2023-02-18T19:11:17.143Z,101054.22
2023-02-18T19:13:45.769Z,101050.38
2023-02-18T19:16:26.617Z,101060.50
2023-02-18T19:18:55.959Z,101081.22
2023-02-18T19:21:22.850Z,101080.91
2023-02-18T19:23:52.209Z,101072.53
2023-02-18T19:26:21.231Z,101072.22
2023-02-18T19:28:50.614Z,101082.50
2023-02-18T19:31:17.733Z,101088.91
2023-02-18T19:33:47.253Z,101087.44
2023-02-18T19:36:18.728Z,101091.00
2023-02-18T19:38:46.605Z,101100.38
2023-02-18T19:41:17.074Z,101098.16
2023-02-18T19:43:46.506Z,101093.44
2023-02-18T19:46:21.682Z,101102.97
2023-02-18T19:48:52.344Z,101099.56
2023-02-18T19:51:21.236Z,101102.19
2023-02-18T19:53:48.207Z,101099.63
2023-02-18T19:56:15.189Z,101102.31
2023-02-18T19:58:44.634Z,101103.38
2023-02-18T20:01:19.237Z,101104.66
2023-02-18T20:03:47.195Z,101109.03
2023-02-18T20:06:21.779Z,101107.84
2023-02-18T20:08:48.941Z,101113.50
2023-02-18T20:11:16.037Z,101116.13
2023-02-18T20:13:44.540Z,101119.19
2023-02-18T20:16:12.200Z,101128.56
2023-02-18T20:18:42.273Z,101125.81
2023-02-18T20:21:14.458Z,101130.88
2023-02-18T20:23:42.116Z,101141.84
2023-02-18T20:26:15.222Z,101135.72
2023-02-18T20:28:42.884Z,101133.84
2023-02-18T20:31:13.940Z,101143.69
2023-02-18T20:33:44.281Z,101144.84
2023-02-18T20:36:14.437Z,101141.22
2023-02-18T20:38:44.353Z,101141.41
2023-02-18T20:41:17.719Z,101133.72
2023-02-18T20:43:46.212Z,101139.69
2023-02-18T20:46:17.596Z,101136.88
2023-02-18T20:48:45.251Z,101135.47
2023-02-18T20:51:16.316Z,101132.06
2023-02-18T20:53:46.167Z,101136.88
2023-02-18T20:56:15.961Z,101133.25
2023-02-18T20:58:45.275Z,101131.38
2023-02-18T21:01:15.694Z,101137.47
2023-02-18T21:03:45.137Z,101144.72
2023-02-18T21:06:19.321Z,101151.69
2023-02-18T21:08:48.935Z,101157.09
2023-02-18T21:11:22.203Z,101151.88
2023-02-18T21:13:51.819Z,101151.59
2023-02-18T21:16:20.791Z,101142.88
2023-02-18T21:18:48.453Z,101149.59
2023-02-18T21:21:18.707Z,101148.72
2023-02-18T21:23:46.174Z,101152.28
2023-02-18T21:26:23.313Z,101162.28
2023-02-18T21:28:56.539Z,101134.16
2023-02-18T21:31:29.906Z,101135.50
2023-02-18T21:33:57.843Z,101137.19
2023-02-18T21:36:28.263Z,101137.81
2023-02-18T21:39:02.937Z,101133.38
2023-02-18T21:41:31.002Z,101124.38
2023-02-18T21:44:02.438Z,101118.22
2023-02-18T21:46:36.743Z,101119.19
2023-02-18T21:49:09.964Z,101121.13
2023-02-18T21:51:56.405Z,101113.66
2023-02-18T21:54:45.497Z,101124.63
2023-02-18T21:57:16.721Z,101114.78
2023-02-18T21:59:45.408Z,101115.97
2023-02-18T22:02:28.205Z,101125.50
2023-02-18T22:04:55.614Z,101111.56
2023-02-18T22:07:25.942Z,101118.59
2023-02-18T22:09:56.310Z,101121.66
2023-02-18T22:12:26.585Z,101134.47
2023-02-18T22:14:53.686Z,101135.63
2023-02-18T22:17:21.596Z,101131.94
2023-02-18T22:19:49.260Z,101133.94
2023-02-18T22:22:20.716Z,101133.63
2023-02-18T22:24:47.658Z,101139.03
2023-02-18T22:27:16.881Z,101140.72
2023-02-18T22:29:47.225Z,101137.63
2023-02-18T22:32:16.835Z,101133.22
2023-02-18T22:34:43.773Z,101133.06
2023-02-18T22:37:10.902Z,101142.00
2023-02-18T22:39:37.931Z,101137.63
2023-02-18T22:42:05.372Z,101137.19
2023-02-18T22:44:32.369Z,101127.09
2023-02-18T22:46:59.402Z,101123.66
2023-02-18T22:49:29.465Z,101135.06
2023-02-18T22:51:56.373Z,101139.03
2023-02-18T22:54:25.484Z,101137.59
2023-02-18T22:56:54.885Z,101140.44
2023-02-18T22:59:21.807Z,101133.19
2023-02-18T23:01:49.754Z,101131.06
2023-02-18T23:04:19.129Z,101138.47
2023-02-18T23:06:46.827Z,101133.09
2023-02-18T23:09:20.338Z,101133.38
2023-02-18T23:11:51.478Z,101128.56
2023-02-18T23:14:21.896Z,101127.13
2023-02-18T23:17:08.801Z,101122.56
2023-02-18T23:19:40.374Z,101131.09
2023-02-18T23:22:09.614Z,101118.44
2023-02-18T23:24:43.659Z,101108.94
2023-02-18T23:27:13.591Z,101099.28
2023-02-18T23:29:45.543Z,101098.69
2023-02-18T23:32:13.180Z,101101.69
2023-02-18T23:34:42.657Z,101097.56
2023-02-18T23:37:10.254Z,101097.66
2023-02-18T23:39:37.560Z,101096.41
2023-02-18T23:42:04.669Z,101093.13
2023-02-18T23:44:32.003Z,101094.97
2023-02-18T23:47:01.276Z,101095.28
2023-02-18T23:49:28.848Z,101099.22
2023-02-18T23:51:59.372Z,101093.28
2023-02-18T23:54:26.591Z,101089.88
2023-02-18T23:56:53.648Z,101086.69
2023-02-18T23:59:20.706Z,101078.59
